Terminal Aerodrome Forecast
Issued by NWS

Home | Current Version | Previous Version | Text Only | Print | Product List | Glossary On
Versions: 1 2 3 4 5 6 7 8 9 10 11 12 13 14 15 16
000
FTUS43 KMQT 021731
TAFCMX
TAF
KCMX 021731Z 0218/0318 27009KT P6SM FEW035
     FM030000 11004KT P6SM SCT250
     FM030700 18005KT P6SM OVC120
     FM031200 18007KT 3SM -SN OVC040
     FM031400 18008KT 2SM -SN OVC015=

USA.gov is the U.S. government's official web portal to all federal, state and local government web resources and services.